Time,TemperatureF,DewpointF,PressureIn,WindDirection,WindDirectionDegrees,WindSpeedMPH,WindSpeedGustMPH,Humidity,HourlyPrecipIn,Conditions,Clouds,dailyrainin,SoftwareType,DateUTC
2013-06-23 00:00:00,54.9,12.2,30.20,SSW,197,4.0,5.4,18,0.00,,---,0.00,VWS V14.01,2013-06-23 06:00:00,
2013-06-23 00:06:00,54.0,11.4,30.23,South,187,5.4,7.6,18,0.00,,---,0.00,VWS V14.01,2013-06-23 06:06:00,
2013-06-23 00:11:00,53.8,11.3,30.23,WSW,249,3.1,6.3,18,0.00,,---,0.00,VWS V14.01,2013-06-23 06:11:00,
2013-06-23 00:17:00,53.8,11.3,30.23,SW,220,5.4,8.7,18,0.00,,---,0.00,VWS V14.01,2013-06-23 06:17:00,
2013-06-23 00:22:00,52.9,10.6,30.20,SSW,193,5.8,6.3,18,0.00,,---,0.00,VWS V14.01,2013-06-23 06:22:00,
2013-06-23 00:27:00,52.2,10.0,30.20,SSE,148,3.1,3.6,18,0.00,,---,0.00,VWS V14.01,2013-06-23 06:27:00,
2013-06-23 00:33:00,52.0,9.8,30.20,SW,233,3.6,6.3,18,0.00,,---,0.00,VWS V14.01,2013-06-23 06:33:00,
2013-06-23 00:39:00,51.8,9.7,30.20,SSW,192,3.6,4.9,18,0.00,,---,0.00,VWS V14.01,2013-06-23 06:39:00,
2013-06-23 00:44:00,51.8,9.7,30.20,SW,222,3.1,4.0,18,0.00,,---,0.00,VWS V14.01,2013-06-23 06:44:00,
2013-06-23 00:51:00,51.3,10.4,30.20,SE,133,3.1,3.6,19,0.00,,---,0.00,VWS V14.01,2013-06-23 06:51:00,
2013-06-23 00:57:00,51.1,10.3,30.20,WSW,241,6.3,7.6,19,0.00,,---,0.00,VWS V14.01,2013-06-23 06:57:00,
2013-06-23 01:02:00,50.4,9.7,30.20,SSW,194,8.3,8.3,19,0.00,,---,0.00,VWS V14.01,2013-06-23 07:02:00,
2013-06-23 01:08:00,50.2,9.5,30.20,SSW,193,6.3,6.3,19,0.00,,---,0.00,VWS V14.01,2013-06-23 07:08:00,
2013-06-23 01:13:00,49.8,9.2,30.20,SSW,192,3.6,5.4,19,0.00,,---,0.00,VWS V14.01,2013-06-23 07:13:00,
2013-06-23 01:19:00,49.5,8.9,30.20,SSW,195,5.4,5.4,19,0.00,,---,0.00,VWS V14.01,2013-06-23 07:19:00,
2013-06-23 01:25:00,49.5,8.9,30.20,South,186,3.6,4.9,19,0.00,,---,0.00,VWS V14.01,2013-06-23 07:25:00,
2013-06-23 01:30:00,49.5,8.9,30.20,SSW,210,3.1,4.0,19,0.00,,---,0.00,VWS V14.01,2013-06-23 07:30:00,
2013-06-23 01:36:00,49.3,8.8,30.20,South,190,4.0,4.0,19,0.00,,---,0.00,VWS V14.01,2013-06-23 07:36:00,
2013-06-23 01:42:00,49.1,8.6,30.20,SSW,207,2.7,5.8,19,0.00,,---,0.00,VWS V14.01,2013-06-23 07:42:00,
2013-06-23 01:48:00,48.7,8.3,30.20,SW,220,3.6,6.7,19,0.00,,---,0.00,VWS V14.01,2013-06-23 07:48:00,
2013-06-23 01:53:00,48.6,8.2,30.20,SSW,209,5.4,6.3,19,0.00,,---,0.00,VWS V14.01,2013-06-23 07:53:00,
2013-06-23 01:59:00,48.2,7.9,30.20,SW,219,4.0,6.3,19,0.00,,---,0.00,VWS V14.01,2013-06-23 07:59:00,
2013-06-23 02:04:00,48.0,7.7,30.20,WSW,238,4.0,7.6,19,0.00,,---,0.00,VWS V14.01,2013-06-23 08:04:00,
2013-06-23 02:10:00,47.8,7.6,30.20,SW,233,5.8,7.6,19,0.00,,---,0.00,VWS V14.01,2013-06-23 08:10:00,
2013-06-23 02:15:00,47.7,7.4,30.20,SSE,153,5.4,6.3,19,0.00,,---,0.00,VWS V14.01,2013-06-23 08:15:00,
2013-06-23 02:21:00,47.3,7.1,30.20,South,169,6.3,6.3,19,0.00,,---,0.00,VWS V14.01,2013-06-23 08:21:00,
2013-06-23 02:26:00,47.3,7.1,30.20,SSW,203,4.0,6.3,19,0.00,,---,0.00,VWS V14.01,2013-06-23 08:26:00,
2013-06-23 02:32:00,47.5,7.3,30.20,SSW,194,5.8,7.2,19,0.00,,---,0.00,VWS V14.01,2013-06-23 08:32:00,
2013-06-23 02:38:00,47.1,7.0,30.20,South,187,4.9,6.3,19,0.00,,---,0.00,VWS V14.01,2013-06-23 08:38:00,
2013-06-23 02:43:00,46.8,6.7,30.20,SW,216,8.1,8.1,19,0.00,,---,0.00,VWS V14.01,2013-06-23 08:43:00,
2013-06-23 02:49:00,46.8,6.7,30.20,SW,226,4.9,8.3,19,0.00,,---,0.00,VWS V14.01,2013-06-23 08:49:00,
2013-06-23 02:55:00,46.6,6.5,30.20,SSW,193,3.6,6.3,19,0.00,,---,0.00,VWS V14.01,2013-06-23 08:55:00,
2013-06-23 03:00:00,46.4,6.4,30.20,SW,222,5.8,5.8,19,0.00,,---,0.00,VWS V14.01,2013-06-23 09:00:00,
2013-06-23 03:06:00,46.2,7.4,30.20,WSW,240,7.6,7.6,20,0.00,,---,0.00,VWS V14.01,2013-06-23 09:06:00,
2013-06-23 03:11:00,46.0,7.2,30.20,SSW,194,2.7,5.8,20,0.00,,---,0.00,VWS V14.01,2013-06-23 09:11:00,
2013-06-23 03:17:00,45.9,7.1,30.20,South,186,3.1,8.1,20,0.00,,---,0.00,VWS V14.01,2013-06-23 09:17:00,
2013-06-23 03:23:00,45.9,7.1,30.20,SW,216,5.8,10.1,20,0.00,,---,0.00,VWS V14.01,2013-06-23 09:23:00,
2013-06-23 03:28:00,45.9,7.1,30.20,SW,230,4.0,8.3,20,0.00,,---,0.00,VWS V14.01,2013-06-23 09:28:00,
2013-06-23 03:34:00,45.5,6.8,30.20,South,189,4.0,6.3,20,0.00,,---,0.00,VWS V14.01,2013-06-23 09:34:00,
2013-06-23 03:39:00,45.1,6.5,30.20,South,188,8.3,8.3,20,0.00,,---,0.00,VWS V14.01,2013-06-23 09:39:00,
2013-06-23 03:45:00,44.8,6.2,30.20,SW,219,7.6,10.5,20,0.00,,---,0.00,VWS V14.01,2013-06-23 09:45:00,
2013-06-23 03:51:00,44.8,6.2,30.20,SW,224,4.9,8.1,20,0.00,,---,0.00,VWS V14.01,2013-06-23 09:51:00,
2013-06-23 03:56:00,44.8,6.2,30.20,SW,216,4.0,5.4,20,0.00,,---,0.00,VWS V14.01,2013-06-23 09:56:00,
2013-06-23 04:01:00,44.4,5.9,30.20,SSW,210,7.6,8.1,20,0.00,,---,0.00,VWS V14.01,2013-06-23 10:01:00,
2013-06-23 04:06:00,44.1,5.6,30.20,SSW,211,11.0,11.0,20,0.00,,---,0.00,VWS V14.01,2013-06-23 10:06:00,
2013-06-23 04:12:00,43.7,5.3,30.20,WSW,240,7.2,7.2,20,0.00,,---,0.00,VWS V14.01,2013-06-23 10:12:00,
2013-06-23 04:17:00,43.7,5.3,30.20,SSW,200,5.8,7.6,20,0.00,,---,0.00,VWS V14.01,2013-06-23 10:17:00,
2013-06-23 04:23:00,43.5,5.1,30.20,South,170,3.6,6.3,20,0.00,,---,0.00,VWS V14.01,2013-06-23 10:23:00,
2013-06-23 04:28:00,43.5,5.1,30.20,SW,230,5.8,7.6,20,0.00,,---,0.00,VWS V14.01,2013-06-23 10:28:00,
2013-06-23 04:34:00,43.3,5.0,30.20,South,186,5.8,8.1,20,0.00,,---,0.00,VWS V14.01,2013-06-23 10:34:00,
2013-06-23 04:39:00,43.2,4.8,30.20,SW,221,5.4,6.3,20,0.00,,---,0.00,VWS V14.01,2013-06-23 10:39:00,
2013-06-23 04:45:00,42.8,4.5,30.20,SSW,208,4.9,6.3,20,0.00,,---,0.00,VWS V14.01,2013-06-23 10:45:00,
2013-06-23 04:51:00,42.8,4.5,30.20,SSW,213,5.8,5.8,20,0.00,,---,0.00,VWS V14.01,2013-06-23 10:51:00,
2013-06-23 04:56:00,42.6,5.4,30.20,SW,215,5.8,8.1,21,0.00,,---,0.00,VWS V14.01,2013-06-23 10:56:00,
2013-06-23 05:02:00,42.4,5.3,30.20,South,191,5.4,8.1,21,0.00,,---,0.00,VWS V14.01,2013-06-23 11:02:00,
2013-06-23 05:08:00,42.4,5.3,30.20,SW,228,4.0,6.7,21,0.00,,---,0.00,VWS V14.01,2013-06-23 11:08:00,
2013-06-23 05:13:00,42.4,5.3,30.20,SSW,209,6.3,7.6,21,0.00,,---,0.00,VWS V14.01,2013-06-23 11:13:00,
2013-06-23 05:19:00,42.3,5.1,30.20,SW,215,5.8,8.3,21,0.00,,---,0.00,VWS V14.01,2013-06-23 11:19:00,
2013-06-23 05:24:00,42.3,5.1,30.20,SW,219,5.4,8.1,21,0.00,,---,0.00,VWS V14.01,2013-06-23 11:24:00,
2013-06-23 05:30:00,42.1,5.0,30.20,SSW,203,3.6,8.1,21,0.00,,---,0.00,VWS V14.01,2013-06-23 11:30:00,
2013-06-23 05:36:00,42.1,5.0,30.20,SSW,202,8.3,8.7,21,0.00,,---,0.00,VWS V14.01,2013-06-23 11:36:00,
2013-06-23 05:41:00,41.9,4.8,30.20,SSW,200,9.2,9.2,21,0.00,,---,0.00,VWS V14.01,2013-06-23 11:41:00,
2013-06-23 05:47:00,41.7,4.7,30.20,SSW,201,8.1,8.1,21,0.00,,---,0.00,VWS V14.01,2013-06-23 11:47:00,
2013-06-23 05:52:00,41.7,4.7,30.20,SSW,207,6.3,11.0,21,0.00,,---,0.00,VWS V14.01,2013-06-23 11:52:00,
2013-06-23 05:58:00,41.5,4.5,30.20,SSW,209,7.6,8.1,21,0.00,,---,0.00,VWS V14.01,2013-06-23 11:58:00,
2013-06-23 06:04:00,41.4,6.4,30.20,SSW,199,8.1,8.3,23,0.00,,---,0.00,VWS V14.01,2013-06-23 12:04:00,
2013-06-23 06:09:00,41.4,6.4,30.20,SSW,211,8.3,10.5,23,0.00,,---,0.00,VWS V14.01,2013-06-23 12:09:00,
2013-06-23 06:14:00,41.4,6.4,30.20,SSW,203,6.3,8.7,23,0.00,,---,0.00,VWS V14.01,2013-06-23 12:14:00,
2013-06-23 06:19:00,41.4,6.4,30.20,SW,217,5.4,8.1,23,0.00,,---,0.00,VWS V14.01,2013-06-23 12:19:00,
2013-06-23 06:24:00,41.4,4.4,30.20,South,170,6.7,6.7,21,0.00,,---,0.00,VWS V14.01,2013-06-23 12:24:00,
2013-06-23 06:30:00,41.5,6.5,30.20,SW,214,6.3,8.7,23,0.00,,---,0.00,VWS V14.01,2013-06-23 12:30:00,
2013-06-23 06:36:00,41.2,6.2,30.20,SSW,211,6.3,8.3,23,0.00,,---,0.00,VWS V14.01,2013-06-23 12:36:00,
2013-06-23 06:41:00,41.0,6.1,30.20,SSW,196,6.3,6.3,23,0.00,,---,0.00,VWS V14.01,2013-06-23 12:41:00,
2013-06-23 06:47:00,41.0,6.1,30.20,SW,217,8.1,8.3,23,0.00,,---,0.00,VWS V14.01,2013-06-23 12:47:00,
2013-06-23 06:52:00,41.0,6.1,30.20,SSW,209,6.3,11.0,23,0.00,,---,0.00,VWS V14.01,2013-06-23 12:52:00,
2013-06-23 06:58:00,41.0,6.1,30.20,South,182,5.4,8.1,23,0.00,,---,0.00,VWS V14.01,2013-06-23 12:58:00,
2013-06-23 07:04:00,41.0,6.1,30.20,SSW,212,9.6,10.1,23,0.00,,---,0.00,VWS V14.01,2013-06-23 13:04:00,
2013-06-23 07:09:00,41.0,6.1,30.20,SW,216,5.4,8.7,23,0.00,,---,0.00,VWS V14.01,2013-06-23 13:09:00,
2013-06-23 07:14:00,41.0,8.8,30.20,SSW,198,4.9,6.3,26,0.00,,---,0.00,VWS V14.01,2013-06-23 13:14:00,
2013-06-23 07:19:00,41.2,6.2,30.20,SW,221,4.0,5.4,23,0.00,,---,0.00,VWS V14.01,2013-06-23 13:19:00,
2013-06-23 07:25:00,41.5,6.5,30.20,South,183,4.0,6.3,23,0.00,,---,0.00,VWS V14.01,2013-06-23 13:25:00,
2013-06-23 07:30:00,41.7,6.7,30.20,South,185,6.3,7.6,23,0.00,,---,0.00,VWS V14.01,2013-06-23 13:30:00,
2013-06-23 07:36:00,42.3,7.1,30.20,SSW,202,6.3,7.6,23,0.00,,---,0.00,VWS V14.01,2013-06-23 13:36:00,
2013-06-23 07:42:00,43.0,7.7,30.20,SSW,202,5.8,6.3,23,0.00,,---,0.00,VWS V14.01,2013-06-23 13:42:00,
2013-06-23 07:47:00,43.7,8.3,30.20,SW,218,4.0,5.8,23,0.00,,---,0.00,VWS V14.01,2013-06-23 13:47:00,
2013-06-23 07:53:00,44.2,8.8,30.20,SW,214,6.3,8.1,23,0.00,,---,0.00,VWS V14.01,2013-06-23 13:53:00,
2013-06-23 07:59:00,44.6,8.1,30.20,SSW,207,4.0,5.8,22,0.00,,---,0.00,VWS V14.01,2013-06-23 13:59:00,
2013-06-23 08:04:00,44.8,8.3,30.20,SSW,196,4.9,6.3,22,0.00,,---,0.00,VWS V14.01,2013-06-23 14:04:00,
2013-06-23 08:10:00,45.5,8.9,30.20,South,189,2.2,4.0,22,0.00,,---,0.00,VWS V14.01,2013-06-23 14:10:00,
2013-06-23 08:15:00,46.2,9.5,30.20,South,191,2.2,6.7,22,0.00,,---,0.00,VWS V14.01,2013-06-23 14:15:00,
2013-06-23 08:21:00,46.6,6.5,30.20,South,182,0.0,3.6,19,0.00,,---,0.00,VWS V14.01,2013-06-23 14:21:00,
2013-06-23 08:27:00,46.8,6.7,30.20,SSE,157,5.4,5.4,19,0.00,,---,0.00,VWS V14.01,2013-06-23 14:27:00,
2013-06-23 08:32:00,46.9,6.8,30.20,South,187,2.7,3.6,19,0.00,,---,0.00,VWS V14.01,2013-06-23 14:32:00,
2013-06-23 08:38:00,47.8,7.6,30.20,South,185,3.1,5.8,19,0.00,,---,0.00,VWS V14.01,2013-06-23 14:38:00,
2013-06-23 08:43:00,48.6,8.2,30.20,South,177,4.9,4.9,19,0.00,,---,0.00,VWS V14.01,2013-06-23 14:43:00,
2013-06-23 08:49:00,48.7,8.3,30.20,South,174,0.0,0.0,19,0.00,,---,0.00,VWS V14.01,2013-06-23 14:49:00,
2013-06-23 08:55:00,49.1,8.6,30.20,SE,140,0.0,0.0,19,0.00,,---,0.00,VWS V14.01,2013-06-23 14:55:00,
2013-06-23 09:00:00,49.3,8.8,30.20,SE,140,0.0,0.0,19,0.00,,---,0.00,VWS V14.01,2013-06-23 15:00:00,
2013-06-23 09:06:00,49.6,9.1,30.20,SE,140,0.0,0.0,19,0.00,,---,0.00,VWS V14.01,2013-06-23 15:06:00,
2013-06-23 09:11:00,50.0,9.4,30.17,SE,140,0.0,0.0,19,0.00,,---,0.00,VWS V14.01,2013-06-23 15:11:00,
2013-06-23 09:17:00,50.5,9.8,30.17,East,98,0.0,0.0,19,0.00,,---,0.00,VWS V14.01,2013-06-23 15:17:00,
2013-06-23 09:23:00,51.8,9.7,30.17,NE,51,0.0,0.0,18,0.00,,---,0.00,VWS V14.01,2013-06-23 15:23:00,
2013-06-23 09:28:00,52.7,10.4,30.17,WNW,303,0.0,0.0,18,0.00,,---,0.00,VWS V14.01,2013-06-23 15:28:00,
2013-06-23 09:34:00,53.2,10.9,30.17,WNW,298,0.0,0.0,18,0.00,,---,0.00,VWS V14.01,2013-06-23 15:34:00,
2013-06-23 09:39:00,54.3,11.7,30.17,West,275,5.4,5.8,18,0.00,,---,0.00,VWS V14.01,2013-06-23 15:39:00,
2013-06-23 09:45:00,56.1,11.9,30.17,SW,226,5.8,10.1,17,0.00,,---,0.00,VWS V14.01,2013-06-23 15:45:00,
2013-06-23 09:50:00,57.2,12.8,30.17,West,281,4.0,6.3,17,0.00,,---,0.00,VWS V14.01,2013-06-23 15:50:00,
2013-06-23 09:56:00,58.1,13.5,30.17,SW,234,3.1,5.4,17,0.00,,---,0.00,VWS V14.01,2013-06-23 15:56:00,
2013-06-23 10:01:00,59.4,14.6,30.17,SW,223,5.4,8.3,17,0.00,,---,0.00,VWS V14.01,2013-06-23 16:01:00,
2013-06-23 10:07:00,60.4,15.4,30.17,West,259,5.8,8.1,17,0.00,,---,0.00,VWS V14.01,2013-06-23 16:07:00,
2013-06-23 10:13:00,61.7,15.1,30.17,NW,315,3.6,5.4,16,0.00,,---,0.00,VWS V14.01,2013-06-23 16:13:00,
2013-06-23 10:19:00,62.4,15.7,30.17,WNW,290,0.0,5.8,16,0.00,,---,0.00,VWS V14.01,2013-06-23 16:19:00,
2013-06-23 10:24:00,62.2,15.5,30.17,SW,226,3.1,4.9,16,0.00,,---,0.00,VWS V14.01,2013-06-23 16:24:00,
2013-06-23 10:30:00,62.6,15.8,30.17,West,276,4.9,8.3,16,0.00,,---,0.00,VWS V14.01,2013-06-23 16:30:00,
2013-06-23 10:35:00,63.1,16.2,30.17,NW,308,8.7,8.7,16,0.00,,---,0.00,VWS V14.01,2013-06-23 16:35:00,
2013-06-23 10:40:00,63.7,16.7,30.17,East,90,5.4,8.3,16,0.00,,---,0.00,VWS V14.01,2013-06-23 16:40:00,
2013-06-23 10:45:00,64.2,17.1,30.17,West,259,0.0,4.5,16,0.00,,---,0.00,VWS V14.01,2013-06-23 16:45:00,
2013-06-23 10:51:00,64.6,15.9,30.17,NW,305,5.8,5.8,15,0.00,,---,0.00,VWS V14.01,2013-06-23 16:51:00,
2013-06-23 10:56:00,65.1,16.4,30.17,WSW,255,6.3,10.1,15,0.00,,---,0.00,VWS V14.01,2013-06-23 16:56:00,
2013-06-23 10:58:00,65.1,16.4,30.17,NW,311,3.1,8.1,15,0.00,,---,0.00,VWS V14.01,2013-06-23 16:58:00,
2013-06-23 10:59:00,65.1,16.4,30.17,West,267,3.6,7.2,15,0.00,,---,0.00,VWS V14.01,2013-06-23 16:59:00,
2013-06-23 11:00:00,64.9,16.2,30.17,SW,219,5.8,8.1,15,0.00,,---,0.00,VWS V14.01,2013-06-23 17:00:00,
2013-06-23 11:01:00,64.9,16.2,30.17,West,274,5.8,8.1,15,0.00,,---,0.00,VWS V14.01,2013-06-23 17:01:00,
2013-06-23 11:06:00,65.1,16.4,30.17,NW,313,6.3,6.3,15,0.00,,---,0.00,VWS V14.01,2013-06-23 17:06:00,
2013-06-23 11:07:00,65.3,16.5,30.17,SSW,211,5.4,7.6,15,0.00,,---,0.00,VWS V14.01,2013-06-23 17:07:00,
2013-06-23 11:12:00,65.7,16.8,30.17,SW,232,8.1,8.1,15,0.00,,---,0.00,VWS V14.01,2013-06-23 17:12:00,
2013-06-23 11:17:00,66.0,17.1,30.17,WNW,288,8.1,8.3,15,0.00,,---,0.00,VWS V14.01,2013-06-23 17:17:00,
2013-06-23 11:23:00,67.3,18.1,30.14,WSW,245,10.1,11.0,15,0.00,,---,0.00,VWS V14.01,2013-06-23 17:23:00,
2013-06-23 11:28:00,68.0,18.7,30.14,SW,233,4.9,10.1,15,0.00,,---,0.00,VWS V14.01,2013-06-23 17:28:00,
2013-06-23 11:34:00,68.5,19.1,30.14,NW,306,6.3,11.4,15,0.00,,---,0.00,VWS V14.01,2013-06-23 17:34:00,
2013-06-23 11:40:00,69.4,19.8,30.14,WSW,244,8.3,13.2,15,0.00,,---,0.00,VWS V14.01,2013-06-23 17:40:00,
2013-06-23 11:45:00,69.3,19.7,30.14,WSW,240,3.1,8.7,15,0.00,,---,0.00,VWS V14.01,2013-06-23 17:45:00,
2013-06-23 11:50:00,69.1,19.5,30.14,West,261,8.7,17.4,15,0.00,,---,0.00,VWS V14.01,2013-06-23 17:50:00,
2013-06-23 11:56:00,69.4,19.8,30.14,SW,214,4.0,15.4,15,0.00,,---,0.00,VWS V14.01,2013-06-23 17:56:00,
2013-06-23 12:01:00,69.4,19.8,30.14,WSW,242,5.4,12.3,15,0.00,,---,0.00,VWS V14.01,2013-06-23 18:01:00,
2013-06-23 12:06:00,69.4,19.8,30.14,SW,227,5.8,14.1,15,0.00,,---,0.00,VWS V14.01,2013-06-23 18:06:00,
2013-06-23 12:12:00,70.2,18.8,30.14,West,279,8.3,14.1,14,0.00,,---,0.00,VWS V14.01,2013-06-23 18:12:00,
2013-06-23 12:17:00,70.3,18.9,30.14,SW,217,11.0,15.4,14,0.00,,---,0.00,VWS V14.01,2013-06-23 18:17:00,
2013-06-23 12:22:00,70.3,18.9,30.14,WSW,247,7.6,9.6,14,0.00,,---,0.00,VWS V14.01,2013-06-23 18:22:00,
2013-06-23 12:28:00,71.1,19.5,30.14,SW,216,8.7,10.5,14,0.00,,---,0.00,VWS V14.01,2013-06-23 18:28:00,
2013-06-23 12:33:00,71.1,19.5,30.14,SW,229,3.6,10.1,14,0.00,,---,0.00,VWS V14.01,2013-06-23 18:33:00,
2013-06-23 12:39:00,70.7,19.2,30.14,WSW,247,9.6,9.6,14,0.00,,---,0.00,VWS V14.01,2013-06-23 18:39:00,
2013-06-23 12:44:00,70.9,19.4,30.14,SSW,203,2.2,10.1,14,0.00,,---,0.00,VWS V14.01,2013-06-23 18:44:00,
2013-06-23 12:50:00,71.4,19.8,30.14,SW,227,5.4,7.6,14,0.00,,---,0.00,VWS V14.01,2013-06-23 18:50:00,
2013-06-23 12:55:00,71.4,19.8,30.14,WSW,240,7.6,7.6,14,0.00,,---,0.00,VWS V14.01,2013-06-23 18:55:00,
2013-06-23 13:01:00,71.1,19.5,30.14,WSW,253,5.8,8.7,14,0.00,,---,0.00,VWS V14.01,2013-06-23 19:01:00,
2013-06-23 13:07:00,72.1,20.4,30.14,WNW,287,9.6,12.8,14,0.00,,---,0.00,VWS V14.01,2013-06-23 19:07:00,
2013-06-23 13:13:00,73.0,21.1,30.14,West,264,6.3,17.9,14,0.00,,---,0.00,VWS V14.01,2013-06-23 19:13:00,
2013-06-23 13:18:00,73.6,19.8,30.14,SSW,193,5.8,15.4,13,0.00,,---,0.00,VWS V14.01,2013-06-23 19:18:00,
2013-06-23 13:23:00,73.9,20.0,30.14,South,169,6.3,15.4,13,0.00,,---,0.00,VWS V14.01,2013-06-23 19:23:00,
2013-06-23 13:29:00,74.3,20.3,30.14,South,191,4.9,10.5,13,0.00,,---,0.00,VWS V14.01,2013-06-23 19:29:00,
2013-06-23 13:35:00,74.8,20.7,30.14,WSW,250,13.2,13.2,13,0.00,,---,0.00,VWS V14.01,2013-06-23 19:35:00,
2013-06-23 13:41:00,75.7,24.9,30.14,SW,226,5.8,8.1,15,0.00,,---,0.00,VWS V14.01,2013-06-23 19:41:00,
2013-06-23 13:47:00,75.9,25.0,30.14,WNW,282,5.8,15.0,15,0.00,,---,0.00,VWS V14.01,2013-06-23 19:47:00,
2013-06-23 13:52:00,76.8,25.7,30.14,SSW,212,4.9,11.9,15,0.00,,---,0.00,VWS V14.01,2013-06-23 19:52:00,
2013-06-23 13:57:00,77.2,26.0,30.14,East,92,5.4,16.8,15,0.00,,---,0.00,VWS V14.01,2013-06-23 19:57:00,
2013-06-23 14:03:00,76.5,25.4,30.14,WSW,239,4.9,6.3,15,0.00,,---,0.00,VWS V14.01,2013-06-23 20:03:00,
2013-06-23 14:09:00,75.9,25.0,30.14,WSW,249,5.4,8.7,15,0.00,,---,0.00,VWS V14.01,2013-06-23 20:09:00,
2013-06-23 14:14:00,75.6,21.3,30.14,SW,231,7.6,7.6,13,0.00,,---,0.00,VWS V14.01,2013-06-23 20:14:00,
2013-06-23 14:20:00,74.7,25.5,30.14,WSW,250,5.4,8.3,16,0.00,,---,0.00,VWS V14.01,2013-06-23 20:20:00,
2013-06-23 14:26:00,75.7,24.9,30.14,West,275,7.2,8.7,15,0.00,,---,0.00,VWS V14.01,2013-06-23 20:26:00,
2013-06-23 14:32:00,77.7,26.4,30.14,South,174,10.1,10.1,15,0.00,,---,0.00,VWS V14.01,2013-06-23 20:32:00,
2013-06-23 14:37:00,78.3,26.9,30.11,West,277,5.4,12.3,15,0.00,,---,0.00,VWS V14.01,2013-06-23 20:37:00,
2013-06-23 14:43:00,77.0,25.9,30.11,WSW,244,7.6,10.5,15,0.00,,---,0.00,VWS V14.01,2013-06-23 20:43:00,
2013-06-23 14:48:00,76.1,25.1,30.11,WSW,256,5.4,8.7,15,0.00,,---,0.00,VWS V14.01,2013-06-23 20:48:00,
2013-06-23 14:53:00,75.7,24.9,30.11,West,264,8.3,8.3,15,0.00,,---,0.00,VWS V14.01,2013-06-23 20:53:00,
2013-06-23 14:59:00,75.9,25.0,30.11,SW,221,10.5,11.9,15,0.00,,---,0.00,VWS V14.01,2013-06-23 20:59:00,
2013-06-23 15:04:00,75.6,24.7,30.11,ESE,114,8.1,11.9,15,0.00,,---,0.00,VWS V14.01,2013-06-23 21:04:00,
2013-06-23 15:10:00,75.9,25.0,30.11,SSW,203,11.0,17.0,15,0.00,,---,0.00,VWS V14.01,2013-06-23 21:10:00,
2013-06-23 15:16:00,76.5,25.4,30.11,WSW,237,8.1,14.5,15,0.00,,---,0.00,VWS V14.01,2013-06-23 21:16:00,
2013-06-23 15:21:00,76.3,25.3,30.11,West,263,7.2,13.2,15,0.00,,---,0.00,VWS V14.01,2013-06-23 21:21:00,
2013-06-23 15:27:00,75.7,24.9,30.11,SSW,193,8.7,14.1,15,0.00,,---,0.00,VWS V14.01,2013-06-23 21:27:00,
2013-06-23 15:32:00,75.7,24.9,30.11,SW,215,5.4,13.2,15,0.00,,---,0.00,VWS V14.01,2013-06-23 21:32:00,
2013-06-23 15:38:00,75.7,24.9,30.11,SW,230,10.1,12.8,15,0.00,,---,0.00,VWS V14.01,2013-06-23 21:38:00,
2013-06-23 15:43:00,76.1,25.1,30.11,SSE,166,5.8,11.0,15,0.00,,---,0.00,VWS V14.01,2013-06-23 21:43:00,
2013-06-23 15:49:00,75.9,25.0,30.11,West,268,8.3,12.8,15,0.00,,---,0.00,VWS V14.01,2013-06-23 21:49:00,
2013-06-23 15:54:00,76.3,25.3,30.11,WSW,248,10.5,14.5,15,0.00,,---,0.00,VWS V14.01,2013-06-23 21:54:00,
2013-06-23 16:00:00,76.6,25.6,30.11,West,261,6.3,11.0,15,0.00,,---,0.00,VWS V14.01,2013-06-23 22:00:00,
2013-06-23 16:06:00,77.0,25.9,30.11,West,278,5.8,14.5,15,0.00,,---,0.00,VWS V14.01,2013-06-23 22:06:00,
2013-06-23 16:11:00,76.8,25.7,30.11,South,177,3.1,11.9,15,0.00,,---,0.00,VWS V14.01,2013-06-23 22:11:00,
2013-06-23 16:17:00,76.1,25.1,30.11,SW,223,11.0,13.2,15,0.00,,---,0.00,VWS V14.01,2013-06-23 22:17:00,
2013-06-23 16:22:00,75.4,24.6,30.11,SW,220,4.0,8.7,15,0.00,,---,0.00,VWS V14.01,2013-06-23 22:22:00,
2013-06-23 16:28:00,75.0,20.9,30.11,SW,229,5.4,5.8,13,0.00,,---,0.00,VWS V14.01,2013-06-23 22:28:00,
2013-06-23 16:33:00,74.7,20.6,30.11,West,269,5.4,11.0,13,0.00,,---,0.00,VWS V14.01,2013-06-23 22:33:00,
2013-06-23 16:39:00,74.1,20.2,30.11,SSE,159,10.1,13.2,13,0.00,,---,0.00,VWS V14.01,2013-06-23 22:39:00,
2013-06-23 16:44:00,73.8,19.9,30.11,WNW,285,5.8,11.0,13,0.00,,---,0.00,VWS V14.01,2013-06-23 22:44:00,
2013-06-23 16:50:00,73.8,19.9,30.11,SW,228,8.3,13.2,13,0.00,,---,0.00,VWS V14.01,2013-06-23 22:50:00,
2013-06-23 16:56:00,73.6,19.8,30.11,SW,235,5.8,10.1,13,0.00,,---,0.00,VWS V14.01,2013-06-23 22:56:00,
2013-06-23 17:01:00,73.4,19.6,30.11,SSW,192,10.1,15.0,13,0.00,,---,0.00,VWS V14.01,2013-06-23 23:01:00,
2013-06-23 17:07:00,73.6,19.8,30.11,East,92,10.5,10.5,13,0.00,,---,0.00,VWS V14.01,2013-06-23 23:07:00,
2013-06-23 17:13:00,73.9,20.0,30.11,SW,228,8.3,14.1,13,0.00,,---,0.00,VWS V14.01,2013-06-23 23:13:00,
2013-06-23 17:19:00,73.4,19.6,30.11,West,274,6.3,15.0,13,0.00,,---,0.00,VWS V14.01,2013-06-23 23:19:00,
2013-06-23 17:25:00,73.2,21.2,30.11,SW,229,10.5,10.5,14,0.00,,---,0.00,VWS V14.01,2013-06-23 23:25:00,
2013-06-23 17:30:00,73.0,21.1,30.11,SW,227,5.4,13.2,14,0.00,,---,0.00,VWS V14.01,2013-06-23 23:30:00,
2013-06-23 17:36:00,72.9,20.9,30.11,West,260,3.1,8.7,14,0.00,,---,0.00,VWS V14.01,2013-06-23 23:36:00,
2013-06-23 17:42:00,72.7,20.8,30.11,SSW,198,6.3,11.0,14,0.00,,---,0.00,VWS V14.01,2013-06-23 23:42:00,
2013-06-23 17:47:00,72.5,20.6,30.11,SSW,213,2.7,10.5,14,0.00,,---,0.00,VWS V14.01,2013-06-23 23:47:00,
2013-06-23 17:53:00,72.5,20.6,30.11,WSW,252,5.8,5.8,14,0.00,,---,0.00,VWS V14.01,2013-06-23 23:53:00,
2013-06-23 17:58:00,72.5,20.6,30.11,SSW,208,13.2,13.2,14,0.00,,---,0.00,VWS V14.01,2013-06-23 23:58:00,
2013-06-23 18:03:00,72.5,20.6,30.11,SSW,207,13.2,13.2,14,0.00,,---,0.00,VWS V14.01,2013-06-24 00:03:00,
2013-06-23 18:08:00,72.5,20.6,30.11,SE,139,6.3,12.8,14,0.00,,---,0.00,VWS V14.01,2013-06-24 00:08:00,
2013-06-23 18:14:00,72.7,20.8,30.11,SW,230,8.1,17.0,14,0.00,,---,0.00,VWS V14.01,2013-06-24 00:14:00,
2013-06-23 18:19:00,73.0,21.1,30.11,SW,219,13.2,17.4,14,0.00,,---,0.00,VWS V14.01,2013-06-24 00:19:00,
2013-06-23 18:25:00,73.2,21.2,30.11,SSW,193,15.4,17.4,14,0.00,,---,0.00,VWS V14.01,2013-06-24 00:25:00,
2013-06-23 18:30:00,73.0,21.1,30.11,SW,232,11.0,12.3,14,0.00,,---,0.00,VWS V14.01,2013-06-24 00:30:00,
2013-06-23 18:36:00,73.0,21.1,30.11,West,281,9.2,10.1,14,0.00,,---,0.00,VWS V14.01,2013-06-24 00:36:00,
2013-06-23 18:41:00,72.9,20.9,30.11,SW,218,8.7,12.8,14,0.00,,---,0.00,VWS V14.01,2013-06-24 00:41:00,
2013-06-23 18:47:00,72.5,20.6,30.11,South,169,11.4,11.4,14,0.00,,---,0.00,VWS V14.01,2013-06-24 00:47:00,
2013-06-23 18:53:00,72.0,20.2,30.11,SW,218,5.4,15.0,14,0.00,,---,0.00,VWS V14.01,2013-06-24 00:53:00,
2013-06-23 18:58:00,71.4,19.8,30.11,South,182,6.3,10.5,14,0.00,,---,0.00,VWS V14.01,2013-06-24 00:58:00,
2013-06-23 19:04:00,71.2,19.6,30.11,WSW,239,5.4,10.1,14,0.00,,---,0.00,VWS V14.01,2013-06-24 01:04:00,
2013-06-23 19:09:00,71.1,19.5,30.11,SW,231,6.3,12.8,14,0.00,,---,0.00,VWS V14.01,2013-06-24 01:09:00,
2013-06-23 19:14:00,70.9,19.4,30.11,South,186,8.3,11.0,14,0.00,,---,0.00,VWS V14.01,2013-06-24 01:14:00,
2013-06-23 19:19:00,70.9,19.4,30.11,SSW,213,10.1,10.1,14,0.00,,---,0.00,VWS V14.01,2013-06-24 01:19:00,
2013-06-23 19:25:00,71.1,19.5,30.14,SSW,193,12.3,12.8,14,0.00,,---,0.00,VWS V14.01,2013-06-24 01:25:00,
2013-06-23 19:30:00,71.1,19.5,30.14,WSW,257,4.9,10.5,14,0.00,,---,0.00,VWS V14.01,2013-06-24 01:30:00,
2013-06-23 19:36:00,70.9,19.4,30.14,SSW,200,8.1,8.3,14,0.00,,---,0.00,VWS V14.01,2013-06-24 01:36:00,
2013-06-23 19:42:00,70.5,19.1,30.14,SSW,197,10.5,10.5,14,0.00,,---,0.00,VWS V14.01,2013-06-24 01:42:00,
2013-06-23 19:47:00,70.2,18.8,30.14,SSW,199,8.3,8.7,14,0.00,,---,0.00,VWS V14.01,2013-06-24 01:47:00,
2013-06-23 19:52:00,70.0,18.6,30.14,SSW,210,5.8,7.6,14,0.00,,---,0.00,VWS V14.01,2013-06-24 01:52:00,
2013-06-23 19:57:00,69.6,20.0,30.14,SSW,208,3.6,7.6,15,0.00,,---,0.00,VWS V14.01,2013-06-24 01:57:00,
2013-06-23 20:03:00,69.3,19.7,30.14,South,171,8.7,8.7,15,0.00,,---,0.00,VWS V14.01,2013-06-24 02:03:00,
2013-06-23 20:09:00,68.9,19.4,30.14,SSW,209,7.6,8.1,15,0.00,,---,0.00,VWS V14.01,2013-06-24 02:09:00,
2013-06-23 20:15:00,68.5,19.1,30.14,WSW,250,3.6,8.3,15,0.00,,---,0.00,VWS V14.01,2013-06-24 02:15:00,
2013-06-23 20:20:00,68.4,19.0,30.14,WSW,246,6.3,7.6,15,0.00,,---,0.00,VWS V14.01,2013-06-24 02:20:00,
2013-06-23 20:25:00,68.0,18.7,30.14,WSW,248,3.6,6.3,15,0.00,,---,0.00,VWS V14.01,2013-06-24 02:25:00,
2013-06-23 20:31:00,67.5,18.2,30.14,SSW,200,3.6,5.8,15,0.00,,---,0.00,VWS V14.01,2013-06-24 02:31:00,
2013-06-23 20:37:00,67.1,17.9,30.14,WSW,250,5.4,5.4,15,0.00,,---,0.00,VWS V14.01,2013-06-24 02:37:00,
2013-06-23 20:42:00,66.6,17.5,30.14,SW,226,0.0,4.9,15,0.00,,---,0.00,VWS V14.01,2013-06-24 02:42:00,
2013-06-23 20:48:00,66.2,17.2,30.14,WSW,238,4.9,4.9,15,0.00,,---,0.00,VWS V14.01,2013-06-24 02:48:00,
2013-06-23 20:53:00,65.7,16.8,30.14,SSE,166,0.0,3.6,15,0.00,,---,0.00,VWS V14.01,2013-06-24 02:53:00,
2013-06-23 20:59:00,65.5,16.6,30.14,WSW,252,2.7,2.7,15,0.00,,---,0.00,VWS V14.01,2013-06-24 02:59:00,
2013-06-23 21:05:00,65.3,16.5,30.14,SSW,204,3.1,6.3,15,0.00,,---,0.00,VWS V14.01,2013-06-24 03:05:00,
2013-06-23 21:10:00,65.3,16.5,30.14,ENE,70,3.1,4.9,15,0.00,,---,0.00,VWS V14.01,2013-06-24 03:10:00,
2013-06-23 21:15:00,65.3,16.5,30.14,WSW,239,0.0,3.6,15,0.00,,---,0.00,VWS V14.01,2013-06-24 03:15:00,
2013-06-23 21:20:00,64.9,16.2,30.14,WSW,238,2.7,3.1,15,0.00,,---,0.00,VWS V14.01,2013-06-24 03:20:00,
2013-06-23 21:26:00,64.0,17.0,30.14,SW,217,0.0,3.6,16,0.00,,---,0.00,VWS V14.01,2013-06-24 03:26:00,
2013-06-23 21:31:00,63.3,16.4,30.14,SE,142,0.0,2.7,16,0.00,,---,0.00,VWS V14.01,2013-06-24 03:31:00,
2013-06-23 21:36:00,63.1,16.2,30.14,WSW,237,0.0,2.7,16,0.00,,---,0.00,VWS V14.01,2013-06-24 03:36:00,
2013-06-23 21:41:00,62.8,15.9,30.14,SW,233,0.0,3.6,16,0.00,,---,0.00,VWS V14.01,2013-06-24 03:41:00,
2013-06-23 21:47:00,62.2,15.5,30.14,WSW,253,0.0,0.0,16,0.00,,---,0.00,VWS V14.01,2013-06-24 03:47:00,
2013-06-23 21:52:00,61.7,15.1,30.17,South,172,0.0,0.0,16,0.00,,---,0.00,VWS V14.01,2013-06-24 03:52:00,
2013-06-23 21:58:00,61.3,14.8,30.17,SSW,200,0.0,5.8,16,0.00,,---,0.00,VWS V14.01,2013-06-24 03:58:00,
2013-06-23 22:01:00,61.2,14.6,30.17,SW,224,0.0,0.0,16,0.00,,---,0.00,VWS V14.01,2013-06-24 04:01:00,
2013-06-23 22:02:00,61.0,14.5,30.17,SSW,204,0.0,0.0,16,0.00,,---,0.00,VWS V14.01,2013-06-24 04:02:00,
2013-06-23 22:06:00,60.8,14.4,30.17,SSW,201,0.0,0.0,16,0.00,,---,0.00,VWS V14.01,2013-06-24 04:06:00,
2013-06-23 22:08:00,60.8,14.4,30.17,SSW,201,0.0,0.0,16,0.00,,---,0.00,VWS V14.01,2013-06-24 04:08:00,
2013-06-23 22:13:00,60.4,15.4,30.17,SSW,196,0.0,0.0,17,0.00,,---,0.00,VWS V14.01,2013-06-24 04:13:00,
2013-06-23 22:14:00,60.4,15.4,30.17,SSW,196,0.0,0.0,17,0.00,,---,0.00,VWS V14.01,2013-06-24 04:14:00,
2013-06-23 22:20:00,60.4,15.4,30.17,South,179,0.0,0.0,17,0.00,,---,0.00,VWS V14.01,2013-06-24 04:20:00,
2013-06-23 22:26:00,60.1,15.1,30.17,South,172,0.0,0.0,17,0.00,,---,0.00,VWS V14.01,2013-06-24 04:26:00,
2013-06-23 22:31:00,59.9,15.0,30.17,SSW,194,0.0,0.0,17,0.00,,---,0.00,VWS V14.01,2013-06-24 04:31:00,
2013-06-23 22:37:00,59.5,14.7,30.17,SE,140,0.0,0.0,17,0.00,,---,0.00,VWS V14.01,2013-06-24 04:37:00,
2013-06-23 22:42:00,59.4,14.6,30.17,SE,140,0.0,0.0,17,0.00,,---,0.00,VWS V14.01,2013-06-24 04:42:00,
2013-06-23 22:47:00,59.2,14.4,30.17,SE,140,0.0,0.0,17,0.00,,---,0.00,VWS V14.01,2013-06-24 04:47:00,
2013-06-23 22:52:00,59.2,14.4,30.17,SE,140,0.0,0.0,17,0.00,,---,0.00,VWS V14.01,2013-06-24 04:52:00,
2013-06-23 22:58:00,59.0,14.3,30.17,SSE,166,3.1,3.1,17,0.00,,---,0.00,VWS V14.01,2013-06-24 04:58:00,
2013-06-23 23:03:00,59.0,14.3,30.17,East,95,0.0,3.6,17,0.00,,---,0.00,VWS V14.01,2013-06-24 05:03:00,
2013-06-23 23:09:00,58.8,14.1,30.17,South,190,4.9,5.4,17,0.00,,---,0.00,VWS V14.01,2013-06-24 05:09:00,
2013-06-23 23:15:00,58.5,13.8,30.17,SSE,159,0.0,0.0,17,0.00,,---,0.00,VWS V14.01,2013-06-24 05:15:00,
2013-06-23 23:20:00,58.1,13.5,30.17,South,179,4.5,4.5,17,0.00,,---,0.00,VWS V14.01,2013-06-24 05:20:00,
2013-06-23 23:26:00,57.6,13.1,30.17,SSW,205,5.8,5.8,17,0.00,,---,0.00,VWS V14.01,2013-06-24 05:26:00,
2013-06-23 23:31:00,56.8,12.5,30.17,South,191,3.6,6.3,17,0.00,,---,0.00,VWS V14.01,2013-06-24 05:31:00,
2013-06-23 23:40:00,56.7,12.4,30.14,South,185,0.0,0.0,17,0.00,,---,0.00,VWS V14.01,2013-06-24 05:40:00,
2013-06-23 23:46:00,56.5,12.2,30.14,SSE,158,0.0,0.0,17,0.00,,---,0.00,VWS V14.01,2013-06-24 05:46:00,
2013-06-23 23:53:00,56.1,11.9,30.17,SSE,152,0.0,0.0,17,0.00,,---,0.00,VWS V14.01,2013-06-24 05:53:00,